sensor_id;sensor_type;location;lat;lon;timestamp;pressure;altitude;pressure_sealevel;temperature;humidity
71889;BME280;59762;49.998;14.858;2023-05-23T00:01:21;96978.44;;;15.97;76.35
71889;BME280;59762;49.998;14.858;2023-05-23T00:03:47;96974.94;;;16.03;75.71
71889;BME280;59762;49.998;14.858;2023-05-23T00:06:13;96967.28;;;16.07;75.39
71889;BME280;59762;49.998;14.858;2023-05-23T00:08:39;96968.56;;;16.17;74.82
71889;BME280;59762;49.998;14.858;2023-05-23T00:11:05;96970.41;;;16.17;75.06
71889;BME280;59762;49.998;14.858;2023-05-23T00:13:31;96968.56;;;16.17;74.74
71889;BME280;59762;49.998;14.858;2023-05-23T00:15:59;96968.75;;;16.16;74.98
71889;BME280;59762;49.998;14.858;2023-05-23T00:18:25;96970.59;;;16.15;75.03
71889;BME280;59762;49.998;14.858;2023-05-23T00:20:50;96976.63;;;16.11;75.57
71889;BME280;59762;49.998;14.858;2023-05-23T00:23:16;96971.63;;;16.08;75.24
71889;BME280;59762;49.998;14.858;2023-05-23T00:25:46;96980.72;;;16.00;76.56
71889;BME280;59762;49.998;14.858;2023-05-23T00:28:17;96981.53;;;15.94;76.59
71889;BME280;59762;49.998;14.858;2023-05-23T00:30:42;96978.53;;;15.76;77.57
71889;BME280;59762;49.998;14.858;2023-05-23T00:33:08;96976.19;;;15.54;79.83
71889;BME280;59762;49.998;14.858;2023-05-23T00:35:34;96978.09;;;15.32;80.62
71889;BME280;59762;49.998;14.858;2023-05-23T00:38:00;96979.69;;;15.20;81.50
71889;BME280;59762;49.998;14.858;2023-05-23T00:40:26;96980.63;;;15.06;81.57
71889;BME280;59762;49.998;14.858;2023-05-23T00:42:52;96982.50;;;15.06;82.38
71889;BME280;59762;49.998;14.858;2023-05-23T00:45:17;96983.06;;;15.01;82.77
71889;BME280;59762;49.998;14.858;2023-05-23T00:47:44;96982.88;;;15.02;82.91
71889;BME280;59762;49.998;14.858;2023-05-23T00:50:11;96988.44;;;15.01;82.93
71889;BME280;59762;49.998;14.858;2023-05-23T00:52:39;96982.25;;;15.01;83.22
71889;BME280;59762;49.998;14.858;2023-05-23T00:55:05;96980.97;;;14.97;83.66
71889;BME280;59762;49.998;14.858;2023-05-23T00:57:33;96977.25;;;14.98;84.34
71889;BME280;59762;49.998;14.858;2023-05-23T01:00:00;96975.78;;;14.95;82.49
71889;BME280;59762;49.998;14.858;2023-05-23T01:02:27;96971.19;;;14.89;81.90
71889;BME280;59762;49.998;14.858;2023-05-23T01:04:54;96968.06;;;14.85;81.99
71889;BME280;59762;49.998;14.858;2023-05-23T01:07:20;96970.88;;;14.77;83.04
71889;BME280;59762;49.998;14.858;2023-05-23T01:09:46;96971.44;;;14.66;84.18
71889;BME280;59762;49.998;14.858;2023-05-23T01:15:09;96971.75;;;14.57;84.28
71889;BME280;59762;49.998;14.858;2023-05-23T01:18:06;96974.00;;;14.53;85.16
71889;BME280;59762;49.998;14.858;2023-05-23T01:20:46;96982.19;;;14.45;85.36
71889;BME280;59762;49.998;14.858;2023-05-23T01:23:39;96980.47;;;14.38;85.62
71889;BME280;59762;49.998;14.858;2023-05-23T01:26:45;96979.56;;;14.31;86.40
71889;BME280;59762;49.998;14.858;2023-05-23T01:29:21;96983.09;;;14.31;86.43
71889;BME280;59762;49.998;14.858;2023-05-23T01:31:52;96988.72;;;14.36;85.99
71889;BME280;59762;49.998;14.858;2023-05-23T01:34:19;96989.75;;;14.35;86.01
71889;BME280;59762;49.998;14.858;2023-05-23T01:36:48;96990.00;;;14.40;85.96
71889;BME280;59762;49.998;14.858;2023-05-23T01:39:15;96982.69;;;14.34;86.40
71889;BME280;59762;49.998;14.858;2023-05-23T01:41:41;96989.69;;;14.29;86.67
71889;BME280;59762;49.998;14.858;2023-05-23T01:44:07;96983.28;;;14.51;84.07
71889;BME280;59762;49.998;14.858;2023-05-23T01:46:34;96984.88;;;14.45;85.42
71889;BME280;59762;49.998;14.858;2023-05-23T01:49:02;96983.16;;;14.38;85.32
71889;BME280;59762;49.998;14.858;2023-05-23T01:51:28;96984.31;;;14.29;85.83
71889;BME280;59762;49.998;14.858;2023-05-23T01:53:55;96982.09;;;14.18;87.10
71889;BME280;59762;49.998;14.858;2023-05-23T01:56:21;96974.41;;;14.15;87.29
71889;BME280;59762;49.998;14.858;2023-05-23T01:58:47;96978.50;;;14.11;87.60
71889;BME280;59762;49.998;14.858;2023-05-23T02:01:13;96973.53;;;14.08;87.95
71889;BME280;59762;49.998;14.858;2023-05-23T02:03:39;96976.94;;;14.02;87.74
71889;BME280;59762;49.998;14.858;2023-05-23T02:06:05;96977.44;;;14.05;87.75
71889;BME280;59762;49.998;14.858;2023-05-23T02:08:30;96975.25;;;14.15;85.81
71889;BME280;59762;49.998;14.858;2023-05-23T02:10:56;96976.03;;;14.09;87.10
71889;BME280;59762;49.998;14.858;2023-05-23T02:13:22;96973.28;;;14.03;88.14
71889;BME280;59762;49.998;14.858;2023-05-23T02:15:47;96975.66;;;13.98;88.01
71889;BME280;59762;49.998;14.858;2023-05-23T02:18:13;96981.25;;;13.96;89.11
71889;BME280;59762;49.998;14.858;2023-05-23T02:20:39;96974.66;;;13.99;87.75
71889;BME280;59762;49.998;14.858;2023-05-23T02:23:05;96970.38;;;14.04;86.87
71889;BME280;59762;49.998;14.858;2023-05-23T02:25:31;96972.31;;;14.10;85.96
71889;BME280;59762;49.998;14.858;2023-05-23T02:27:56;96961.63;;;14.17;85.15
71889;BME280;59762;49.998;14.858;2023-05-23T02:30:22;96958.59;;;14.20;85.02
71889;BME280;59762;49.998;14.858;2023-05-23T02:32:48;96957.41;;;14.22;84.63
71889;BME280;59762;49.998;14.858;2023-05-23T02:35:14;96954.31;;;14.25;84.35
71889;BME280;59762;49.998;14.858;2023-05-23T02:37:40;96959.69;;;14.25;84.17
71889;BME280;59762;49.998;14.858;2023-05-23T02:40:06;96958.69;;;14.26;84.57
71889;BME280;59762;49.998;14.858;2023-05-23T02:42:32;96961.75;;;14.23;84.29
71889;BME280;59762;49.998;14.858;2023-05-23T02:44:58;96959.06;;;14.23;84.13
71889;BME280;59762;49.998;14.858;2023-05-23T02:47:24;96967.78;;;14.32;84.54
71889;BME280;59762;49.998;14.858;2023-05-23T02:49:49;96978.78;;;14.37;84.48
71889;BME280;59762;49.998;14.858;2023-05-23T02:52:15;96985.25;;;14.42;84.79
71889;BME280;59762;49.998;14.858;2023-05-23T02:54:42;96988.59;;;14.44;84.82
71889;BME280;59762;49.998;14.858;2023-05-23T02:57:07;96982.38;;;14.44;84.83
71889;BME280;59762;49.998;14.858;2023-05-23T02:59:33;96981.47;;;14.37;84.95
71889;BME280;59762;49.998;14.858;2023-05-23T03:01:59;96987.13;;;14.42;83.96
71889;BME280;59762;49.998;14.858;2023-05-23T03:04:24;96989.53;;;14.37;85.43
71889;BME280;59762;49.998;14.858;2023-05-23T03:06:50;96981.03;;;14.33;86.11
71889;BME280;59762;49.998;14.858;2023-05-23T03:09:18;96971.25;;;14.26;86.75
71889;BME280;59762;49.998;14.858;2023-05-23T03:11:45;96974.31;;;14.23;86.07
71889;BME280;59762;49.998;14.858;2023-05-23T03:14:10;96975.78;;;14.25;86.33
71889;BME280;59762;49.998;14.858;2023-05-23T03:16:36;96966.06;;;14.24;86.40
71889;BME280;59762;49.998;14.858;2023-05-23T03:19:02;96960.34;;;14.27;86.65
71889;BME280;59762;49.998;14.858;2023-05-23T03:21:30;96956.81;;;14.27;86.46
71889;BME280;59762;49.998;14.858;2023-05-23T03:23:56;96951.88;;;14.30;86.55
71889;BME280;59762;49.998;14.858;2023-05-23T03:26:21;96955.78;;;14.28;86.24
71889;BME280;59762;49.998;14.858;2023-05-23T03:28:48;96953.63;;;14.38;85.89
71889;BME280;59762;49.998;14.858;2023-05-23T03:31:16;96952.28;;;14.48;84.16
71889;BME280;59762;49.998;14.858;2023-05-23T03:33:41;96955.53;;;14.44;85.51
71889;BME280;59762;49.998;14.858;2023-05-23T03:36:07;96975.66;;;14.33;85.42
71889;BME280;59762;49.998;14.858;2023-05-23T03:38:32;96965.91;;;14.11;87.00
71889;BME280;59762;49.998;14.858;2023-05-23T03:40:58;96973.59;;;14.14;86.95
71889;BME280;59762;49.998;14.858;2023-05-23T03:43:24;96974.88;;;14.18;87.45
71889;BME280;59762;49.998;14.858;2023-05-23T03:45:50;96979.50;;;14.24;87.74
71889;BME280;59762;49.998;14.858;2023-05-23T03:48:15;96974.13;;;14.24;87.92
71889;BME280;59762;49.998;14.858;2023-05-23T03:50:41;96969.47;;;14.33;87.03
71889;BME280;59762;49.998;14.858;2023-05-23T03:53:07;96964.22;;;14.46;87.42
71889;BME280;59762;49.998;14.858;2023-05-23T03:55:33;96973.81;;;14.55;86.77
71889;BME280;59762;49.998;14.858;2023-05-23T03:57:58;96973.59;;;14.56;87.04
71889;BME280;59762;49.998;14.858;2023-05-23T04:00:25;96970.53;;;14.59;87.58
71889;BME280;59762;49.998;14.858;2023-05-23T04:02:50;96965.09;;;14.53;87.44
71889;BME280;59762;49.998;14.858;2023-05-23T04:05:16;96972.59;;;14.57;88.08
71889;BME280;59762;49.998;14.858;2023-05-23T04:07:44;96969.13;;;14.91;85.58
71889;BME280;59762;49.998;14.858;2023-05-23T04:10:10;96959.47;;;14.97;85.86
71889;BME280;59762;49.998;14.858;2023-05-23T04:12:36;96965.59;;;14.90;86.67
71889;BME280;59762;49.998;14.858;2023-05-23T04:15:06;96969.22;;;14.76;86.64
71889;BME280;59762;49.998;14.858;2023-05-23T04:17:32;96962.41;;;15.02;85.70
71889;BME280;59762;49.998;14.858;2023-05-23T04:19:58;96969.03;;;15.06;85.62
71889;BME280;59762;49.998;14.858;2023-05-23T04:22:23;96972.88;;;14.90;86.08
71889;BME280;59762;49.998;14.858;2023-05-23T04:24:49;96980.88;;;14.83;86.50
71889;BME280;59762;49.998;14.858;2023-05-23T04:27:15;96979.59;;;14.79;86.60
71889;BME280;59762;49.998;14.858;2023-05-23T04:29:41;96982.19;;;14.94;85.53
71889;BME280;59762;49.998;14.858;2023-05-23T04:32:08;96974.91;;;15.16;85.23
71889;BME280;59762;49.998;14.858;2023-05-23T04:34:34;96974.06;;;15.15;84.78
71889;BME280;59762;49.998;14.858;2023-05-23T04:37:00;96970.53;;;15.42;83.08
71889;BME280;59762;49.998;14.858;2023-05-23T04:39:29;96970.50;;;15.83;81.60
71889;BME280;59762;49.998;14.858;2023-05-23T04:41:55;96972.47;;;15.55;82.61
71889;BME280;59762;49.998;14.858;2023-05-23T04:44:22;96963.06;;;15.85;80.85
71889;BME280;59762;49.998;14.858;2023-05-23T04:46:48;96968.75;;;16.22;79.53
71889;BME280;59762;49.998;14.858;2023-05-23T04:49:15;96963.69;;;15.87;79.93
71889;BME280;59762;49.998;14.858;2023-05-23T04:51:41;96970.72;;;15.81;79.72
71889;BME280;59762;49.998;14.858;2023-05-23T04:54:07;96960.53;;;15.70;79.32
71889;BME280;59762;49.998;14.858;2023-05-23T04:56:33;96956.00;;;15.77;79.48
71889;BME280;59762;49.998;14.858;2023-05-23T04:58:59;96956.06;;;15.97;78.74
71889;BME280;59762;49.998;14.858;2023-05-23T05:01:24;96951.22;;;16.46;78.54
71889;BME280;59762;49.998;14.858;2023-05-23T05:03:51;96949.25;;;18.45;71.52
71889;BME280;59762;49.998;14.858;2023-05-23T05:06:17;96947.31;;;19.68;66.84
71889;BME280;59762;49.998;14.858;2023-05-23T05:08:43;96941.88;;;19.50;66.64
71889;BME280;59762;49.998;14.858;2023-05-23T05:11:09;96939.03;;;19.63;66.91
71889;BME280;59762;49.998;14.858;2023-05-23T05:13:35;96943.59;;;19.62;65.99
71889;BME280;59762;49.998;14.858;2023-05-23T05:16:01;96940.06;;;18.52;69.53
71889;BME280;59762;49.998;14.858;2023-05-23T05:18:27;96928.00;;;18.97;69.06
71889;BME280;59762;49.998;14.858;2023-05-23T05:20:53;96935.41;;;19.08;68.55
71889;BME280;59762;49.998;14.858;2023-05-23T05:23:19;96931.22;;;19.12;70.19
71889;BME280;59762;49.998;14.858;2023-05-23T05:25:45;96932.28;;;19.11;70.65
71889;BME280;59762;49.998;14.858;2023-05-23T05:28:11;96941.28;;;19.84;68.98
71889;BME280;59762;49.998;14.858;2023-05-23T05:30:36;96937.03;;;20.06;68.47
71889;BME280;59762;49.998;14.858;2023-05-23T05:33:05;96934.00;;;19.48;68.95
71889;BME280;59762;49.998;14.858;2023-05-23T05:35:32;96939.94;;;19.39;70.54
71889;BME280;59762;49.998;14.858;2023-05-23T05:37:59;96935.75;;;18.94;72.50
71889;BME280;59762;49.998;14.858;2023-05-23T05:40:25;96928.19;;;18.53;73.82
71889;BME280;59762;49.998;14.858;2023-05-23T05:42:51;96926.50;;;18.21;75.23
71889;BME280;59762;49.998;14.858;2023-05-23T05:45:17;96911.09;;;17.91;76.75
71889;BME280;59762;49.998;14.858;2023-05-23T05:47:44;96906.94;;;17.88;76.90
71889;BME280;59762;49.998;14.858;2023-05-23T05:50:09;96897.44;;;19.57;71.70
71889;BME280;59762;49.998;14.858;2023-05-23T05:52:36;96892.25;;;20.85;66.98
71889;BME280;59762;49.998;14.858;2023-05-23T05:55:05;96885.72;;;21.67;64.64
71889;BME280;59762;49.998;14.858;2023-05-23T05:57:32;96887.75;;;22.56;63.73
71889;BME280;59762;49.998;14.858;2023-05-23T05:59:58;96879.44;;;22.95;61.04
71889;BME280;59762;49.998;14.858;2023-05-23T06:02:23;96874.44;;;23.42;58.99
71889;BME280;59762;49.998;14.858;2023-05-23T06:04:49;96873.44;;;23.48;58.74
71889;BME280;59762;49.998;14.858;2023-05-23T06:07:15;96880.13;;;23.78;57.86
71889;BME280;59762;49.998;14.858;2023-05-23T06:09:40;96886.19;;;22.32;61.22
71889;BME280;59762;49.998;14.858;2023-05-23T06:12:06;96901.09;;;21.50;63.73
71889;BME280;59762;49.998;14.858;2023-05-23T06:14:32;96901.06;;;20.58;66.18
71889;BME280;59762;49.998;14.858;2023-05-23T06:16:58;96898.59;;;19.97;68.81
71889;BME280;59762;49.998;14.858;2023-05-23T06:19:24;96905.63;;;19.69;71.05
71889;BME280;59762;49.998;14.858;2023-05-23T06:21:49;96901.13;;;19.45;71.34
71889;BME280;59762;49.998;14.858;2023-05-23T06:24:15;96905.03;;;19.31;72.35
71889;BME280;59762;49.998;14.858;2023-05-23T06:26:41;96899.50;;;19.19;73.67
71889;BME280;59762;49.998;14.858;2023-05-23T06:29:07;96909.06;;;19.22;73.75
71889;BME280;59762;49.998;14.858;2023-05-23T06:31:32;96912.59;;;20.12;71.43
71889;BME280;59762;49.998;14.858;2023-05-23T06:33:58;96915.56;;;20.63;69.08
71889;BME280;59762;49.998;14.858;2023-05-23T06:36:24;96916.25;;;21.12;67.87
71889;BME280;59762;49.998;14.858;2023-05-23T06:38:49;96925.78;;;21.37;67.59
71889;BME280;59762;49.998;14.858;2023-05-23T06:41:15;96933.56;;;21.57;66.51
71889;BME280;59762;49.998;14.858;2023-05-23T06:43:40;96945.81;;;20.90;68.40
71889;BME280;59762;49.998;14.858;2023-05-23T06:46:06;96954.75;;;19.90;68.20
71889;BME280;59762;49.998;14.858;2023-05-23T06:48:32;96965.63;;;18.81;69.33
71889;BME280;59762;49.998;14.858;2023-05-23T06:50:58;96979.47;;;17.91;70.04
71889;BME280;59762;49.998;14.858;2023-05-23T06:53:23;96986.97;;;18.27;69.04
71889;BME280;59762;49.998;14.858;2023-05-23T06:55:49;96996.69;;;17.97;68.10
71889;BME280;59762;49.998;14.858;2023-05-23T06:58:15;97009.59;;;18.39;69.50
71889;BME280;59762;49.998;14.858;2023-05-23T07:00:40;96996.53;;;18.36;67.89
71889;BME280;59762;49.998;14.858;2023-05-23T07:03:06;97008.41;;;18.28;68.74
71889;BME280;59762;49.998;14.858;2023-05-23T07:05:32;97009.56;;;18.76;67.29
71889;BME280;59762;49.998;14.858;2023-05-23T07:07:58;97007.06;;;19.06;67.14
71889;BME280;59762;49.998;14.858;2023-05-23T07:10:24;97006.47;;;18.97;65.58
71889;BME280;59762;49.998;14.858;2023-05-23T07:12:50;97000.38;;;18.84;66.23
71889;BME280;59762;49.998;14.858;2023-05-23T07:15:16;97007.00;;;18.88;67.22
71889;BME280;59762;49.998;14.858;2023-05-23T07:17:42;97005.34;;;18.87;65.81
71889;BME280;59762;49.998;14.858;2023-05-23T07:20:09;97005.03;;;19.26;64.46
71889;BME280;59762;49.998;14.858;2023-05-23T07:22:35;96999.38;;;19.27;64.07
71889;BME280;59762;49.998;14.858;2023-05-23T07:25:00;96988.63;;;19.81;63.57
71889;BME280;59762;49.998;14.858;2023-05-23T07:27:26;96989.91;;;19.61;63.37
71889;BME280;59762;49.998;14.858;2023-05-23T07:29:52;96988.84;;;19.62;66.31
71889;BME280;59762;49.998;14.858;2023-05-23T07:32:18;96984.66;;;20.31;63.75
71889;BME280;59762;49.998;14.858;2023-05-23T07:34:44;96973.19;;;20.18;62.95
71889;BME280;59762;49.998;14.858;2023-05-23T07:37:12;96970.03;;;19.49;64.31
71889;BME280;59762;49.998;14.858;2023-05-23T07:39:40;96973.91;;;19.10;66.23
71889;BME280;59762;49.998;14.858;2023-05-23T07:42:06;96978.25;;;18.93;67.64
71889;BME280;59762;49.998;14.858;2023-05-23T07:44:31;96981.91;;;18.99;67.19
71889;BME280;59762;49.998;14.858;2023-05-23T07:46:57;96980.25;;;18.73;67.98
71889;BME280;59762;49.998;14.858;2023-05-23T07:49:23;96982.75;;;18.99;68.28
71889;BME280;59762;49.998;14.858;2023-05-23T07:51:48;96992.03;;;19.10;66.26
71889;BME280;59762;49.998;14.858;2023-05-23T07:54:14;96983.69;;;19.11;67.03
71889;BME280;59762;49.998;14.858;2023-05-23T07:56:41;96985.84;;;19.03;66.77
71889;BME280;59762;49.998;14.858;2023-05-23T07:59:07;96995.38;;;18.81;67.62
71889;BME280;59762;49.998;14.858;2023-05-23T08:01:33;97005.56;;;18.54;67.05
71889;BME280;59762;49.998;14.858;2023-05-23T08:04:01;97009.09;;;18.11;68.33
71889;BME280;59762;49.998;14.858;2023-05-23T08:06:26;97012.91;;;18.41;69.30
71889;BME280;59762;49.998;14.858;2023-05-23T08:08:52;97011.66;;;18.74;66.37
71889;BME280;59762;49.998;14.858;2023-05-23T08:11:18;97004.34;;;19.06;66.47
71889;BME280;59762;49.998;14.858;2023-05-23T08:13:43;97011.22;;;19.33;66.50
71889;BME280;59762;49.998;14.858;2023-05-23T08:16:09;97010.81;;;19.72;64.47
71889;BME280;59762;49.998;14.858;2023-05-23T08:18:35;97019.41;;;19.26;62.58
71889;BME280;59762;49.998;14.858;2023-05-23T08:21:00;97019.31;;;19.08;61.25
71889;BME280;59762;49.998;14.858;2023-05-23T08:23:27;97013.16;;;18.95;62.53
71889;BME280;59762;49.998;14.858;2023-05-23T08:25:53;97027.16;;;19.16;61.90
71889;BME280;59762;49.998;14.858;2023-05-23T08:28:20;97030.72;;;19.10;62.92
71889;BME280;59762;49.998;14.858;2023-05-23T08:30:45;97029.66;;;19.18;61.30
71889;BME280;59762;49.998;14.858;2023-05-23T08:33:11;97037.63;;;19.37;62.66
71889;BME280;59762;49.998;14.858;2023-05-23T08:35:37;97031.44;;;19.73;61.28
71889;BME280;59762;49.998;14.858;2023-05-23T08:38:05;97035.97;;;19.79;60.73
71889;BME280;59762;49.998;14.858;2023-05-23T08:40:35;97034.59;;;19.70;60.72
71889;BME280;59762;49.998;14.858;2023-05-23T08:43:01;97044.97;;;19.73;61.90
71889;BME280;59762;49.998;14.858;2023-05-23T08:45:27;97037.75;;;19.67;61.73
71889;BME280;59762;49.998;14.858;2023-05-23T08:47:59;97057.91;;;19.53;60.51
71889;BME280;59762;49.998;14.858;2023-05-23T08:50:27;97063.91;;;19.30;62.04
71889;BME280;59762;49.998;14.858;2023-05-23T08:52:54;97059.00;;;19.45;63.73
71889;BME280;59762;49.998;14.858;2023-05-23T08:55:23;97063.56;;;19.20;62.09
71889;BME280;59762;49.998;14.858;2023-05-23T08:57:53;97065.34;;;19.33;64.90
71889;BME280;59762;49.998;14.858;2023-05-23T09:00:20;97073.44;;;19.08;63.08
71889;BME280;59762;49.998;14.858;2023-05-23T09:02:47;97078.06;;;19.01;65.16
71889;BME280;59762;49.998;14.858;2023-05-23T09:05:12;97070.72;;;19.39;63.96
71889;BME280;59762;49.998;14.858;2023-05-23T09:07:39;97074.22;;;19.46;62.84
71889;BME280;59762;49.998;14.858;2023-05-23T09:10:07;97079.28;;;19.61;63.45
71889;BME280;59762;49.998;14.858;2023-05-23T09:12:34;97079.16;;;19.74;62.97
71889;BME280;59762;49.998;14.858;2023-05-23T09:15:05;97080.72;;;19.63;62.95
71889;BME280;59762;49.998;14.858;2023-05-23T09:17:32;97069.06;;;19.38;63.28
71889;BME280;59762;49.998;14.858;2023-05-23T09:19:58;97077.22;;;19.56;63.94
71889;BME280;59762;49.998;14.858;2023-05-23T09:22:26;97076.13;;;19.39;64.01
71889;BME280;59762;49.998;14.858;2023-05-23T09:24:54;97073.47;;;19.33;65.34
71889;BME280;59762;49.998;14.858;2023-05-23T09:27:20;97071.59;;;19.33;65.62
71889;BME280;59762;49.998;14.858;2023-05-23T09:29:45;97076.63;;;19.54;65.44
71889;BME280;59762;49.998;14.858;2023-05-23T09:32:16;97076.78;;;19.59;65.80
71889;BME280;59762;49.998;14.858;2023-05-23T09:34:54;97076.91;;;19.46;65.63
71889;BME280;59762;49.998;14.858;2023-05-23T09:37:20;97070.63;;;19.70;66.29
71889;BME280;59762;49.998;14.858;2023-05-23T09:39:49;97069.81;;;19.70;65.25
71889;BME280;59762;49.998;14.858;2023-05-23T09:42:21;97078.84;;;19.82;65.82
71889;BME280;59762;49.998;14.858;2023-05-23T09:44:48;97078.72;;;19.95;64.87
71889;BME280;59762;49.998;14.858;2023-05-23T09:47:15;97082.34;;;20.07;65.28
71889;BME280;59762;49.998;14.858;2023-05-23T09:49:45;97082.69;;;20.17;65.13
71889;BME280;59762;49.998;14.858;2023-05-23T09:52:11;97082.41;;;20.00;65.70
71889;BME280;59762;49.998;14.858;2023-05-23T09:54:38;97083.63;;;20.04;66.00
71889;BME280;59762;49.998;14.858;2023-05-23T09:57:09;97082.75;;;19.86;66.51
71889;BME280;59762;49.998;14.858;2023-05-23T09:59:38;97091.56;;;19.39;64.85
71889;BME280;59762;49.998;14.858;2023-05-23T10:02:06;97092.22;;;19.03;65.81
71889;BME280;59762;49.998;14.858;2023-05-23T10:04:33;97103.31;;;19.26;67.27
71889;BME280;59762;49.998;14.858;2023-05-23T10:07:17;97101.00;;;18.92;66.76
71889;BME280;59762;49.998;14.858;2023-05-23T10:10:02;97108.59;;;18.27;69.86
71889;BME280;59762;49.998;14.858;2023-05-23T10:15:01;97107.47;;;17.32;72.97
71889;BME280;59762;49.998;14.858;2023-05-23T10:20:21;97106.00;;;16.90;77.31
71889;BME280;59762;49.998;14.858;2023-05-23T10:22:49;97120.25;;;16.78;79.69
71889;BME280;59762;49.998;14.858;2023-05-23T10:25:15;97121.28;;;16.70;82.67
71889;BME280;59762;49.998;14.858;2023-05-23T10:27:42;97119.88;;;16.34;85.22
71889;BME280;59762;49.998;14.858;2023-05-23T10:30:08;97122.94;;;16.18;86.73
71889;BME280;59762;49.998;14.858;2023-05-23T10:32:35;97115.38;;;16.00;89.63
71889;BME280;59762;49.998;14.858;2023-05-23T10:38:01;97108.63;;;16.17;90.94
71889;BME280;59762;49.998;14.858;2023-05-23T10:43:50;97109.19;;;16.47;90.00
71889;BME280;59762;49.998;14.858;2023-05-23T10:46:19;97109.03;;;16.68;88.77
71889;BME280;59762;49.998;14.858;2023-05-23T10:48:53;97119.63;;;16.63;88.74
71889;BME280;59762;49.998;14.858;2023-05-23T10:51:21;97118.56;;;16.57;89.56
71889;BME280;59762;49.998;14.858;2023-05-23T10:53:52;97112.63;;;16.81;89.39
71889;BME280;59762;49.998;14.858;2023-05-23T10:56:20;97108.91;;;16.95;87.68
71889;BME280;59762;49.998;14.858;2023-05-23T10:58:52;97116.81;;;17.29;86.13
71889;BME280;59762;49.998;14.858;2023-05-23T11:01:19;97106.47;;;17.52;84.41
71889;BME280;59762;49.998;14.858;2023-05-23T11:14:15;97099.16;;;17.85;82.64
71889;BME280;59762;49.998;14.858;2023-05-23T11:16:42;97102.69;;;17.79;86.17
71889;BME280;59762;49.998;14.858;2023-05-23T11:21:51;97109.50;;;17.95;83.35
71889;BME280;59762;49.998;14.858;2023-05-23T11:24:18;97098.88;;;18.06;83.42
71889;BME280;59762;49.998;14.858;2023-05-23T11:26:54;97100.69;;;18.32;83.12
71889;BME280;59762;49.998;14.858;2023-05-23T11:29:27;97098.38;;;18.42;82.18
71889;BME280;59762;49.998;14.858;2023-05-23T11:31:56;97100.50;;;18.27;82.50
71889;BME280;59762;49.998;14.858;2023-05-23T11:34:24;97099.78;;;17.81;82.89
71889;BME280;59762;49.998;14.858;2023-05-23T11:36:55;97099.72;;;18.00;83.07
71889;BME280;59762;49.998;14.858;2023-05-23T11:39:22;97084.75;;;18.04;82.35
71889;BME280;59762;49.998;14.858;2023-05-23T11:42:01;97099.44;;;18.41;82.17
71889;BME280;59762;49.998;14.858;2023-05-23T11:44:27;97098.41;;;18.29;78.73
71889;BME280;59762;49.998;14.858;2023-05-23T11:47:03;97097.56;;;18.79;78.07
71889;BME280;59762;49.998;14.858;2023-05-23T11:49:33;97095.81;;;19.28;77.66
71889;BME280;59762;49.998;14.858;2023-05-23T11:52:00;97096.50;;;19.66;75.84
71889;BME280;59762;49.998;14.858;2023-05-23T11:54:27;97100.06;;;19.11;76.64
71889;BME280;59762;49.998;14.858;2023-05-23T11:56:54;97098.09;;;18.94;77.20
71889;BME280;59762;49.998;14.858;2023-05-23T11:59:21;97111.06;;;19.16;78.27
71889;BME280;59762;49.998;14.858;2023-05-23T12:01:47;97105.47;;;19.11;78.22
71889;BME280;59762;49.998;14.858;2023-05-23T12:04:13;97104.84;;;19.09;79.49
71889;BME280;59762;49.998;14.858;2023-05-23T12:06:39;97111.81;;;19.30;79.22
71889;BME280;59762;49.998;14.858;2023-05-23T12:09:11;97108.31;;;18.54;79.71
71889;BME280;59762;49.998;14.858;2023-05-23T12:11:38;97102.19;;;18.15;81.71
71889;BME280;59762;49.998;14.858;2023-05-23T12:14:06;97108.66;;;18.07;81.89
71889;BME280;59762;49.998;14.858;2023-05-23T12:16:32;97108.53;;;17.76;84.66
71889;BME280;59762;49.998;14.858;2023-05-23T12:18:59;97108.53;;;17.70;88.40
71889;BME280;59762;49.998;14.858;2023-05-23T12:21:26;97105.22;;;17.48;90.00
71889;BME280;59762;49.998;14.858;2023-05-23T12:24:30;97100.22;;;17.45;91.62
71889;BME280;59762;49.998;14.858;2023-05-23T12:27:00;97100.22;;;17.45;90.84
71889;BME280;59762;49.998;14.858;2023-05-23T12:29:31;97097.28;;;17.73;89.55
71889;BME280;59762;49.998;14.858;2023-05-23T12:31:58;97101.38;;;18.01;88.71
71889;BME280;59762;49.998;14.858;2023-05-23T12:34:24;97097.53;;;18.48;87.33
71889;BME280;59762;49.998;14.858;2023-05-23T12:36:54;97100.81;;;18.56;85.45
71889;BME280;59762;49.998;14.858;2023-05-23T12:39:24;97100.44;;;18.84;86.70
71889;BME280;59762;49.998;14.858;2023-05-23T12:41:51;97107.94;;;19.19;84.32
71889;BME280;59762;49.998;14.858;2023-05-23T12:44:17;97103.94;;;19.53;82.83
71889;BME280;59762;49.998;14.858;2023-05-23T12:46:43;97102.63;;;19.80;80.30
71889;BME280;59762;49.998;14.858;2023-05-23T12:49:09;97094.53;;;19.98;77.46
71889;BME280;59762;49.998;14.858;2023-05-23T12:51:35;97092.13;;;20.08;78.20
71889;BME280;59762;49.998;14.858;2023-05-23T12:54:01;97097.41;;;19.60;79.12
71889;BME280;59762;49.998;14.858;2023-05-23T12:56:27;97107.19;;;19.37;78.27
71889;BME280;59762;49.998;14.858;2023-05-23T12:58:52;97098.59;;;19.89;77.78
71889;BME280;59762;49.998;14.858;2023-05-23T13:01:19;97092.16;;;19.83;76.79
71889;BME280;59762;49.998;14.858;2023-05-23T13:03:45;97095.41;;;20.34;77.93
71889;BME280;59762;49.998;14.858;2023-05-23T13:06:10;97096.25;;;19.92;74.50
71889;BME280;59762;49.998;14.858;2023-05-23T13:08:36;97094.31;;;19.99;76.40
71889;BME280;59762;49.998;14.858;2023-05-23T13:11:02;97103.69;;;20.21;74.67
71889;BME280;59762;49.998;14.858;2023-05-23T13:13:28;97101.13;;;19.84;74.72
71889;BME280;59762;49.998;14.858;2023-05-23T13:15:55;97099.28;;;20.02;73.86
71889;BME280;59762;49.998;14.858;2023-05-23T13:18:20;97101.50;;;19.87;74.17